LIVE FIGHTS

IndicativoPilotoOrigenDestinoEstado vueloTipo Aeronave% CompletadoPendiente NM

BIENVENIDO A Fly Ecuador Virtual

Fly Ecuador Virtual es una organización creada con el fin de brindar una plataforma que permita a los pilotos virtuales, principalmente ecuatorianos, tener un lugar donde registrar sus horas de vuelo, sus certificados de conocimiento adquiridos, las rutas que han volado y los destinos que han visitado. Así mismo, se busca ayudar a todos los pilotos a expandir su conocimiento sobre el mundo de la aviación real y virtual por medio de publicaciones, foros y cursos en línea.
A diferencia de las aerolíneas virtuales tradicionales, Fly Ecuador Virtual no simula las operaciones de una aerolínea del mundo real en específico. Un miembro de Fly Ecuador Virtual tiene toda la libertad de volar cualquier aeronave que opere en el espacio aéreo ecuatoriano real, en cualquier ruta, sea esta nacional o internacional, IFR o VFR, aeronaves monomotor, multimotor o helicópteros. Todo esto con el objetivo de expandir las operaciones virtuales dentro del espacio aéreo ecuatoriano, creando una comunidad en la que se compartan conocimientos y experiencias que beneficien a todos sus integrantes.
El crecimiento de Fly Ecuador Virtual depende de la participación conjunta de todos sus miembros, por este motivo se incentiva la participación en línea a través de los diferentes medios descritos más adelante en este sitio web.

ESTADÍSTICAS

Pilotos 61
Horas totales: 4362.24
Vuelos totales 1546

ÚLTIMOS VUELOS

IndicativoPilotoOrigenDestinoFechaTiempo de vuelo
ECU024Arturo CarvajalSEGUSEQM19-11-20170.54
ECU014Rodolfo Estrella C.SEMTSEQM19-11-20170.76
ECU014Rodolfo Estrella C.SEQMSEMT19-11-20170.62
ECU014Rodolfo Estrella C.SEQMSEGU18-11-20170.62
ECU018Luis HerediaSEMTSEQM12-11-20170.59

NUEVOS PILOTOS

PilotoFecha
ECU079-Vicente Torres13-07-2017
ECU077-Fernando Flores Valarezo06-07-2017
ECU078-Ricardo Guzman05-07-2017
ECU075-FREDDY RIVERA29-06-2017
ECU074-Emilio Mayhua28-06-2017

PRÓXIMOS EVENTOS y METARS

EventoFecha
METAR
SEGU - José Joaquín de Olmedo International Airport, Guayaquil, ECU
Distance from station: N 0mi, 0km
Updated: Mon, 20-Nov-2017 2:00pm PST
Partly Cloudy
Partly Cloudy
 Wind from S
Wind: S 9 mph , 15 km/h
Temperature: 86°F , 30°C
Heat Index: 89°F , 32°C
Dew Point: 68°F , 20°C
Humidity: 55%
Barometer: 29.77 inHg , 1008 hPa
Clouds: Partly Cloudy
Visibility: 6 miles , 10 km
Cloud details: Few Clouds 3300 ft
Partly Cloudy 10000 ft
2017/11/20 22:00 SEGU 202200Z 17008KT 140V220 9999 FEW033 SCT100 30/20 Q1008 NOSIG RMK A2978
 
SEQM - Aeropuerto Internacional Mariscal Sucre, ECU
Distance from station: NE 120mi, 200km
Updated: Mon, 20-Nov-2017 2:00pm PST
Nearby showers, Mostly cloudy
Nearby showers, Mostly cloudy
 Wind from NNE
Wind: NNE 8 mph , 13 km/h
Temperature: 57°F , 14°C
Dew Point: 48°F , 9°C
Humidity: 72%
Barometer: 30.21 inHg , 1023 hPa
Summary: Nearby Showers
Clouds: Mostly Cloudy
Visibility: 6 miles , 10 km
Cloud details: Mostly Cloudy 3300 ft
Mostly Cloudy 8000 ft
2017/11/20 22:00 SEQM 202200Z 03007KT 9999 VCSH BKN033 BKN080 14/09 Q1023 NOSIG RMK A3022
 
SECU - Mariscal Lamar Airpor, ECU
Distance from station: ENE 80mi, 120km
Updated: Mon, 20-Nov-2017 2:00pm PST
Light thunderstorm, Rain, Partly cloudy
Light thunderstorm, Rain, Partly cloudy
 Wind from ENE
Wind: ENE 13 mph , 20 km/h
Temperature: 57°F , 14°C
Dew Point: 54°F , 12°C
Humidity: 88%
Barometer: 30.18 inHg , 1022 hPa
Summary: Light thunderstorm, Rain
Clouds: Partly Cloudy
Visibility: 6 miles , 10 km
Cloud details: Partly Cloudy 3000 ft
Partly Cloudy 4000 ft
2017/11/20 22:00 SECU 202200Z 07011KT 9999 -TSRA SCT030CB SCT040 14/12 Q1022
 
SELT - Cotopaxi International Airport, ECU
Distance from station: NW 21mi, 34km
Updated: Mon, 20-Nov-2017 2:00pm PST
Nearby showers, Partly cloudy
Nearby showers, Partly cloudy
 Wind from N
Wind: N 5 mph , 7 km/h
Temperature: 59°F , 15°C
Dew Point: 50°F , 10°C
Humidity: 72%
Barometer: 30.3 inHg , 1026 hPa
Summary: Nearby Showers
Clouds: Partly Cloudy
Visibility: 6 miles , 10 km
Cloud details: Mostly Cloudy 3000 ft
Partly Cloudy 10000 ft
2017/11/20 22:00 SELT 202200Z 01004KT 9999 VCSH BKN030 SCT100 15/10 Q1026
 
SEMT - Eloy Alfaro International Airport, ECU
Distance from station: SSE 70mi, 100km
Updated: Mon, 20-Nov-2017 2:00pm PST
Clear
Clear
 Wind from SSW
Wind: SSW 12 mph , 19 km/h
Temperature: 81°F , 27°C
Heat Index: 85°F , 29°C
Dew Point: 70°F , 21°C
Humidity: 70%
Barometer: 29.8 inHg , 1009 hPa
Summary: Clear
Visibility: greater than 7 miles , 10 km
2017/11/20 22:00 SEMT 202200Z 21010KT CAVOK 27/21 Q1009 RMK A2981

Metar display script from Saratoga-Weather.org

TWEETS

NOTAMS

NOTAMFecha